createdAt,value
2018-12-30T00:00:22.973Z,3.60
2018-12-30T00:03:04.038Z,3.70
2018-12-30T00:05:46.027Z,3.70
2018-12-30T00:08:27.362Z,3.70
2018-12-30T00:11:07.340Z,3.60
2018-12-30T00:13:55.935Z,3.60
2018-12-30T00:16:37.391Z,3.70
2018-12-30T00:19:18.485Z,3.60
2018-12-30T00:22:00.370Z,3.60
2018-12-30T00:24:42.102Z,3.60
2018-12-30T00:27:22.742Z,3.60
2018-12-30T00:30:04.461Z,3.60
2018-12-30T00:32:46.419Z,3.60
2018-12-30T00:35:27.555Z,3.60
2018-12-30T00:38:08.628Z,3.60
2018-12-30T00:40:49.535Z,3.60
2018-12-30T00:43:31.542Z,3.60
2018-12-30T00:46:13.253Z,3.60
2018-12-30T00:48:54.882Z,3.60
2018-12-30T00:51:34.863Z,3.60
2018-12-30T00:54:16.221Z,3.60
2018-12-30T00:56:57.535Z,3.60
2018-12-30T00:59:39.096Z,3.60
2018-12-30T01:02:20.382Z,3.60
2018-12-30T01:05:01.979Z,3.60
2018-12-30T01:07:43.483Z,3.60
2018-12-30T01:10:25.271Z,3.60
2018-12-30T01:13:06.620Z,3.60
2018-12-30T01:15:48.659Z,3.60
2018-12-30T01:18:30.319Z,3.60
2018-12-30T01:21:11.062Z,3.60
2018-12-30T01:23:52.151Z,3.60
2018-12-30T01:26:31.904Z,3.50
2018-12-30T01:29:20.787Z,3.60
2018-12-30T01:32:02.371Z,3.60
2018-12-30T01:34:43.748Z,3.60
2018-12-30T01:37:25.797Z,3.60
2018-12-30T01:40:07.215Z,3.50
2018-12-30T01:42:49.005Z,3.60
2018-12-30T01:45:30.221Z,3.50
2018-12-30T01:48:11.420Z,3.50
2018-12-30T01:50:53.493Z,3.50
2018-12-30T01:53:34.459Z,3.50
2018-12-30T01:56:15.345Z,3.50
2018-12-30T01:58:57.151Z,3.50
2018-12-30T02:01:38.853Z,3.50
2018-12-30T02:04:20.175Z,3.50
2018-12-30T02:07:00.851Z,3.50
2018-12-30T02:09:42.255Z,3.50
2018-12-30T02:12:23.163Z,3.40
2018-12-30T02:15:04.331Z,3.40
2018-12-30T02:17:45.303Z,3.40
2018-12-30T02:20:25.175Z,3.40
2018-12-30T02:23:13.432Z,3.40
2018-12-30T02:25:54.776Z,3.40
2018-12-30T02:28:35.799Z,3.40
2018-12-30T02:31:16.604Z,3.40
2018-12-30T02:33:56.498Z,3.40
2018-12-30T02:36:38.395Z,3.40
2018-12-30T02:39:18.323Z,3.40
2018-12-30T02:42:07.325Z,3.40
2018-12-30T02:44:48.432Z,3.40
2018-12-30T02:47:29.921Z,3.40
2018-12-30T02:50:11.044Z,3.40
2018-12-30T02:52:51.033Z,3.40
2018-12-30T02:55:33.058Z,3.40
2018-12-30T02:58:14.349Z,3.40
2018-12-30T03:00:55.136Z,3.40
2018-12-30T03:03:36.729Z,3.40
2018-12-30T03:06:18.499Z,3.40
2018-12-30T03:08:59.892Z,3.40
2018-12-30T03:11:41.313Z,3.40
2018-12-30T03:14:22.167Z,3.40
2018-12-30T03:17:03.324Z,3.40
2018-12-30T03:19:44.089Z,3.40
2018-12-30T03:22:23.878Z,3.40
2018-12-30T03:25:12.427Z,3.40
2018-12-30T03:27:53.764Z,3.40
2018-12-30T03:30:34.853Z,3.40
2018-12-30T03:33:15.616Z,3.40
2018-12-30T03:35:56.938Z,3.40
2018-12-30T03:38:37.143Z,3.40
2018-12-30T03:41:17.933Z,3.40
2018-12-30T03:43:58.589Z,3.40
2018-12-30T03:46:39.502Z,3.40
2018-12-30T03:49:20.673Z,3.40
2018-12-30T03:52:08.404Z,3.40
2018-12-30T03:54:44.847Z,3.40
2018-12-30T03:57:26.375Z,3.40
2018-12-30T04:00:06.603Z,3.30
2018-12-30T04:05:48.208Z,3.30
2018-12-30T04:08:29.209Z,3.30
2018-12-30T04:11:10.293Z,3.30
2018-12-30T04:13:52.153Z,3.40
2018-12-30T04:16:33.553Z,3.30
2018-12-30T04:19:14.374Z,3.30
2018-12-30T04:21:54.841Z,3.30
2018-12-30T04:24:36.007Z,3.30
2018-12-30T04:27:17.322Z,3.40
2018-12-30T04:29:58.592Z,3.30
2018-12-30T04:32:39.764Z,3.30
2018-12-30T04:35:20.944Z,3.30
2018-12-30T04:38:02.050Z,3.30
2018-12-30T04:40:43.481Z,3.30
2018-12-30T04:43:24.359Z,3.30
2018-12-30T04:46:06.170Z,3.30
2018-12-30T04:48:47.523Z,3.30
2018-12-30T04:51:29.149Z,3.30
2018-12-30T04:54:11.049Z,3.30
2018-12-30T04:56:52.528Z,3.30
2018-12-30T04:59:34.167Z,3.30
2018-12-30T05:02:15.806Z,3.30
2018-12-30T05:04:55.637Z,3.30
2018-12-30T05:10:37.385Z,3.30
2018-12-30T05:13:18.460Z,3.40
2018-12-30T05:15:59.030Z,3.30
2018-12-30T05:18:40.711Z,3.30
2018-12-30T05:21:22.347Z,3.30
2018-12-30T05:24:03.927Z,3.30
2018-12-30T05:26:45.517Z,3.40
2018-12-30T05:29:27.175Z,3.40
2018-12-30T05:32:08.826Z,3.40
2018-12-30T05:34:49.916Z,3.30
2018-12-30T05:37:30.962Z,3.30
2018-12-30T05:40:10.816Z,3.40
2018-12-30T05:42:59.456Z,3.30
2018-12-30T05:45:38.731Z,3.30
2018-12-30T05:48:27.007Z,3.30
2018-12-30T05:51:08.460Z,3.30
2018-12-30T05:53:50.142Z,3.30
2018-12-30T05:56:32.004Z,3.30
2018-12-30T05:59:13.144Z,3.30
2018-12-30T06:01:52.731Z,3.30
2018-12-30T06:04:41.019Z,3.30
2018-12-30T06:07:22.168Z,3.30
2018-12-30T06:10:02.983Z,3.30
2018-12-30T06:12:44.593Z,3.20
2018-12-30T06:15:26.095Z,3.30
2018-12-30T06:18:05.640Z,3.20
2018-12-30T06:20:46.275Z,3.30
2018-12-30T06:23:27.965Z,3.30
2018-12-30T06:26:09.095Z,3.20
2018-12-30T06:28:49.902Z,3.20
2018-12-30T06:31:30.706Z,3.30
2018-12-30T06:34:12.232Z,3.30
2018-12-30T06:36:53.814Z,3.30
2018-12-30T06:39:33.593Z,3.20
2018-12-30T06:42:14.184Z,3.30
2018-12-30T06:44:55.061Z,3.30
2018-12-30T06:47:36.182Z,3.20
2018-12-30T06:50:17.433Z,3.20
2018-12-30T06:52:58.280Z,3.20
2018-12-30T06:55:40.208Z,3.20
2018-12-30T06:58:21.920Z,3.20
2018-12-30T07:01:03.953Z,3.20
2018-12-30T07:03:44.436Z,3.20
2018-12-30T07:06:25.749Z,3.10
2018-12-30T07:09:07.399Z,3.10
2018-12-30T07:11:47.107Z,3.10
2018-12-30T07:14:28.701Z,3.20
2018-12-30T07:17:10.225Z,3.20
2018-12-30T07:19:52.001Z,3.20
2018-12-30T07:22:33.476Z,3.20
2018-12-30T07:25:14.972Z,3.20
2018-12-30T07:27:55.631Z,3.20
2018-12-30T07:30:36.763Z,3.20
2018-12-30T07:33:18.182Z,3.20
2018-12-30T07:35:59.454Z,3.10
2018-12-30T07:38:40.818Z,3.20
2018-12-30T07:41:22.177Z,3.20
2018-12-30T07:44:03.816Z,3.20
2018-12-30T07:46:45.279Z,3.20
2018-12-30T07:49:26.579Z,3.20
2018-12-30T07:52:06.322Z,3.20
2018-12-30T07:54:55.273Z,3.20
2018-12-30T07:57:36.609Z,3.20
2018-12-30T08:00:17.535Z,3.20
2018-12-30T08:02:59.568Z,3.20
2018-12-30T08:05:40.677Z,3.20
2018-12-30T08:08:21.429Z,3.20
2018-12-30T08:11:02.173Z,3.30
2018-12-30T08:13:43.043Z,3.30
2018-12-30T08:16:25.015Z,3.30
2018-12-30T08:19:05.904Z,3.30
2018-12-30T08:21:46.498Z,3.30
2018-12-30T08:24:27.850Z,3.30
2018-12-30T08:27:08.850Z,3.30
2018-12-30T08:29:49.629Z,3.30
2018-12-30T08:32:29.078Z,3.20
2018-12-30T08:35:09.626Z,3.20
2018-12-30T08:37:51.105Z,3.20
2018-12-30T08:40:33.010Z,3.20
2018-12-30T08:43:14.137Z,3.20
2018-12-30T08:45:54.448Z,3.20
2018-12-30T08:48:35.716Z,3.20
2018-12-30T08:51:16.243Z,3.20
2018-12-30T08:53:57.360Z,3.20
2018-12-30T08:56:38.311Z,3.20
2018-12-30T08:59:19.692Z,3.20
2018-12-30T09:02:01.174Z,3.20
2018-12-30T09:04:42.480Z,3.30
2018-12-30T09:07:24.179Z,3.30
2018-12-30T09:10:05.769Z,3.20
2018-12-30T09:12:47.237Z,3.20
2018-12-30T09:15:28.247Z,3.30
2018-12-30T09:18:07.864Z,3.30
2018-12-30T09:20:48.778Z,3.30
2018-12-30T09:23:37.063Z,3.30
2018-12-30T09:26:13.310Z,3.40
2018-12-30T09:28:54.039Z,3.30
2018-12-30T09:31:35.401Z,3.30
2018-12-30T09:34:17.298Z,3.40
2018-12-30T09:36:57.966Z,3.40
2018-12-30T09:39:39.037Z,3.50
2018-12-30T09:42:18.651Z,3.50
2018-12-30T09:45:00.236Z,3.50
2018-12-30T09:47:41.676Z,3.50
2018-12-30T09:50:23.220Z,3.50
2018-12-30T09:53:04.437Z,3.50
2018-12-30T09:55:46.601Z,3.40
2018-12-30T09:58:28.998Z,3.50
2018-12-30T10:01:10.364Z,3.60
2018-12-30T10:03:52.255Z,3.60
2018-12-30T10:06:33.733Z,3.60
2018-12-30T10:09:15.094Z,3.60
2018-12-30T10:11:55.908Z,3.60
2018-12-30T10:14:36.777Z,3.60
2018-12-30T10:17:18.295Z,3.60
2018-12-30T10:19:57.630Z,3.50
2018-12-30T10:22:38.750Z,3.60
2018-12-30T10:25:20.001Z,3.60
2018-12-30T10:28:01.674Z,3.50
2018-12-30T10:30:42.584Z,3.60
2018-12-30T10:33:21.934Z,3.60
2018-12-30T10:36:10.577Z,3.60
2018-12-30T10:38:50.532Z,3.60
2018-12-30T10:41:32.235Z,3.60
2018-12-30T10:44:13.414Z,3.50
2018-12-30T10:46:54.894Z,3.50
2018-12-30T10:49:35.690Z,3.60
2018-12-30T10:52:16.332Z,3.60
2018-12-30T10:54:57.556Z,3.60
2018-12-30T10:57:39.169Z,3.60
2018-12-30T11:00:20.677Z,3.60
2018-12-30T11:03:02.640Z,3.60
2018-12-30T11:05:44.169Z,3.60
2018-12-30T11:08:26.017Z,3.70
2018-12-30T11:11:06.642Z,3.70
2018-12-30T11:13:48.149Z,3.70
2018-12-30T11:16:27.725Z,3.70
2018-12-30T11:19:09.474Z,3.70
2018-12-30T11:21:48.998Z,3.80
2018-12-30T11:24:37.762Z,3.80
2018-12-30T11:27:19.315Z,3.70
2018-12-30T11:29:59.006Z,3.80
2018-12-30T11:32:40.043Z,3.80
2018-12-30T11:35:20.676Z,3.80
2018-12-30T11:38:01.698Z,3.80
2018-12-30T11:40:43.476Z,3.70
2018-12-30T11:43:24.887Z,3.80
2018-12-30T11:46:05.975Z,3.80
2018-12-30T11:48:46.882Z,3.80
2018-12-30T11:51:28.463Z,4.00
2018-12-30T11:54:16.262Z,3.90
2018-12-30T11:56:51.396Z,3.90
2018-12-30T11:59:32.925Z,4.00
2018-12-30T12:02:13.746Z,4.00
2018-12-30T12:04:54.311Z,4.00
2018-12-30T12:07:34.788Z,4.00
2018-12-30T12:10:15.310Z,4.00
2018-12-30T12:12:56.014Z,4.00
2018-12-30T12:15:38.364Z,4.00
2018-12-30T12:18:19.529Z,4.00
2018-12-30T12:21:01.223Z,4.00
2018-12-30T12:23:42.188Z,4.00
2018-12-30T12:26:23.672Z,4.00
2018-12-30T12:29:05.034Z,4.00
2018-12-30T12:31:46.532Z,3.90
2018-12-30T12:34:27.881Z,3.90
2018-12-30T12:37:09.140Z,3.80
2018-12-30T12:39:50.195Z,3.80
2018-12-30T12:42:31.289Z,3.80
2018-12-30T12:45:12.911Z,3.80
2018-12-30T12:47:53.547Z,3.80
2018-12-30T12:50:35.740Z,3.80
2018-12-30T12:53:16.816Z,3.80
2018-12-30T12:55:58.119Z,3.80
2018-12-30T12:58:39.166Z,3.80
2018-12-30T13:01:20.476Z,3.80
2018-12-30T13:04:01.853Z,3.80
2018-12-30T13:06:43.568Z,3.70
2018-12-30T13:09:25.295Z,3.80
2018-12-30T13:12:07.171Z,3.80
2018-12-30T13:14:48.096Z,3.80
2018-12-30T13:17:29.476Z,3.70
2018-12-30T13:20:11.227Z,3.70
2018-12-30T13:22:52.829Z,3.70
2018-12-30T13:25:34.200Z,3.70
2018-12-30T13:28:15.553Z,3.70
2018-12-30T13:30:57.135Z,3.70
2018-12-30T13:33:37.917Z,3.70
2018-12-30T13:36:19.174Z,3.70
2018-12-30T13:39:01.075Z,3.70
2018-12-30T13:41:42.853Z,3.60
2018-12-30T13:44:23.782Z,3.70
2018-12-30T13:47:04.954Z,3.70
2018-12-30T13:49:46.771Z,3.70
2018-12-30T13:52:26.541Z,3.70
2018-12-30T13:55:15.628Z,3.70
2018-12-30T13:57:55.438Z,3.70
2018-12-30T14:00:44.400Z,3.70
2018-12-30T14:03:25.752Z,3.70
2018-12-30T14:06:07.498Z,3.60
2018-12-30T14:08:49.152Z,3.60
2018-12-30T14:11:30.842Z,3.60
2018-12-30T14:14:12.471Z,3.60
2018-12-30T14:16:54.209Z,3.60
2018-12-30T14:19:35.943Z,3.60
2018-12-30T14:22:15.645Z,3.50
2018-12-30T14:24:57.294Z,3.50
2018-12-30T14:27:39.015Z,3.60
2018-12-30T14:30:20.876Z,3.60
2018-12-30T14:33:02.614Z,3.50
2018-12-30T14:35:44.355Z,3.50
2018-12-30T14:38:25.551Z,3.50
2018-12-30T14:41:07.445Z,3.50
2018-12-30T14:43:48.830Z,3.50
2018-12-30T14:46:34.824Z,3.50
2018-12-30T14:49:12.332Z,3.50
2018-12-30T14:51:54.045Z,3.50
2018-12-30T14:54:35.565Z,3.50
2018-12-30T14:57:16.557Z,3.50
2018-12-30T14:59:57.573Z,3.50
2018-12-30T15:02:38.890Z,3.50
2018-12-30T15:05:20.285Z,3.50
2018-12-30T15:08:01.256Z,3.50
2018-12-30T15:10:42.124Z,3.50
2018-12-30T15:13:23.034Z,3.60
2018-12-30T15:16:04.732Z,3.60
2018-12-30T15:18:46.271Z,3.60
2018-12-30T15:21:28.168Z,3.50
2018-12-30T15:24:09.537Z,3.50
2018-12-30T15:26:51.094Z,3.40
2018-12-30T15:29:33.427Z,3.40
2018-12-30T15:32:14.184Z,3.40
2018-12-30T15:34:55.987Z,3.30
2018-12-30T15:37:37.338Z,3.30
2018-12-30T15:40:19.032Z,3.30
2018-12-30T15:43:00.078Z,3.30
2018-12-30T15:45:41.665Z,3.30
2018-12-30T15:48:22.577Z,3.40
2018-12-30T15:51:03.492Z,3.40
2018-12-30T15:53:45.520Z,3.40
2018-12-30T15:56:27.212Z,3.50
2018-12-30T15:59:08.689Z,3.50
2018-12-30T16:01:48.175Z,3.60
2018-12-30T16:04:29.309Z,3.70
2018-12-30T16:07:10.120Z,3.70
2018-12-30T16:09:50.834Z,3.70
2018-12-30T16:12:31.727Z,3.70
2018-12-30T16:15:12.290Z,3.70
2018-12-30T16:17:53.671Z,3.70
2018-12-30T16:20:34.493Z,3.70
2018-12-30T16:23:16.249Z,3.60
2018-12-30T16:25:57.772Z,3.50
2018-12-30T16:28:39.217Z,3.50
2018-12-30T16:31:27.861Z,3.40
2018-12-30T16:34:03.271Z,3.40
2018-12-30T16:36:43.925Z,3.30
2018-12-30T16:39:25.489Z,3.30
2018-12-30T16:42:06.256Z,3.30
2018-12-30T16:44:47.913Z,3.20
2018-12-30T16:47:29.151Z,3.10
2018-12-30T16:50:09.925Z,3.10
2018-12-30T16:52:51.449Z,3.10
2018-12-30T16:55:34.949Z,3.00
2018-12-30T16:58:15.821Z,2.90
2018-12-30T17:00:57.711Z,2.90
2018-12-30T17:03:38.963Z,2.70
2018-12-30T17:06:20.532Z,2.60
2018-12-30T17:09:01.204Z,2.60
2018-12-30T17:11:42.117Z,3.10
2018-12-30T17:14:23.247Z,3.10
2018-12-30T17:17:06.408Z,2.70
2018-12-30T17:19:47.444Z,2.90
2018-12-30T17:22:28.776Z,2.50
2018-12-30T17:25:10.342Z,2.50
2018-12-30T17:27:51.817Z,2.40
2018-12-30T17:30:32.751Z,2.30
2018-12-30T17:33:12.541Z,2.20
2018-12-30T17:35:53.844Z,2.10
2018-12-30T17:38:35.088Z,2.20
2018-12-30T17:41:16.514Z,2.10
2018-12-30T17:43:58.056Z,2.10
2018-12-30T17:46:39.319Z,2.20
2018-12-30T17:49:20.645Z,2.20
2018-12-30T17:52:01.931Z,2.20
2018-12-30T17:54:41.828Z,2.30
2018-12-30T17:57:30.813Z,2.40
2018-12-30T18:00:12.111Z,2.40
2018-12-30T18:02:54.660Z,2.60
2018-12-30T18:05:36.227Z,2.60
2018-12-30T18:08:17.946Z,2.60
2018-12-30T18:10:59.666Z,2.70
2018-12-30T18:13:40.939Z,2.70
2018-12-30T18:16:22.663Z,2.70
2018-12-30T18:19:02.472Z,2.70
2018-12-30T18:21:44.429Z,2.70
2018-12-30T18:24:25.604Z,2.70
2018-12-30T18:27:05.560Z,2.70
2018-12-30T18:29:54.195Z,2.70
2018-12-30T18:32:35.654Z,2.70
2018-12-30T18:35:16.323Z,2.70
2018-12-30T18:37:57.682Z,2.70
2018-12-30T18:40:39.155Z,2.80
2018-12-30T18:43:21.360Z,2.80
2018-12-30T18:46:02.811Z,2.80
2018-12-30T18:48:44.348Z,2.80
2018-12-30T18:51:26.479Z,2.90
2018-12-30T18:54:07.779Z,2.90
2018-12-30T18:56:49.510Z,2.90
2018-12-30T18:59:30.494Z,2.90
2018-12-30T19:02:12.206Z,2.90
2018-12-30T19:04:53.795Z,2.90
2018-12-30T19:07:33.506Z,3.00
2018-12-30T19:10:22.195Z,3.00
2018-12-30T19:13:03.944Z,3.00
2018-12-30T19:15:45.662Z,3.00
2018-12-30T19:18:26.896Z,3.00
2018-12-30T19:21:07.722Z,3.00
2018-12-30T19:23:49.337Z,3.00
2018-12-30T19:26:31.334Z,2.90
2018-12-30T19:29:12.839Z,3.00
2018-12-30T19:31:52.352Z,3.00
2018-12-30T19:34:33.120Z,3.00
2018-12-30T19:37:15.056Z,2.90
2018-12-30T19:39:55.911Z,3.00
2018-12-30T19:42:37.373Z,2.90
2018-12-30T19:45:19.119Z,2.90
2018-12-30T19:48:00.691Z,2.90
2018-12-30T19:50:41.909Z,2.90
2018-12-30T19:53:23.197Z,2.90
2018-12-30T19:56:05.012Z,2.90
2018-12-30T19:58:46.463Z,3.00
2018-12-30T20:01:27.295Z,3.00
2018-12-30T20:04:08.943Z,3.00
2018-12-30T20:06:49.914Z,3.00
2018-12-30T20:09:31.352Z,3.00
2018-12-30T20:12:12.419Z,3.00
2018-12-30T20:14:53.710Z,3.00
2018-12-30T20:17:34.762Z,3.00
2018-12-30T20:20:16.411Z,3.00
2018-12-30T20:22:57.164Z,3.00
2018-12-30T20:25:38.443Z,3.00
2018-12-30T20:28:19.909Z,3.00
2018-12-30T20:31:01.444Z,3.00
2018-12-30T20:33:42.287Z,3.00
2018-12-30T20:36:23.472Z,3.10
2018-12-30T20:39:05.292Z,3.10
2018-12-30T20:41:46.590Z,3.10
2018-12-30T20:44:27.456Z,3.10
2018-12-30T20:47:09.177Z,3.10
2018-12-30T20:49:50.857Z,3.10
2018-12-30T20:52:32.163Z,3.10
2018-12-30T20:55:13.674Z,3.10
2018-12-30T20:57:54.636Z,3.10
2018-12-30T21:00:36.198Z,3.10
2018-12-30T21:03:17.036Z,3.20
2018-12-30T21:05:58.256Z,3.20
2018-12-30T21:08:37.822Z,3.20
2018-12-30T21:14:18.472Z,3.20
2018-12-30T21:17:00.149Z,3.20
2018-12-30T21:19:41.938Z,3.20
2018-12-30T21:22:23.094Z,3.20
2018-12-30T21:25:03.813Z,3.20
2018-12-30T21:27:45.613Z,3.20
2018-12-30T21:30:26.958Z,3.20
2018-12-30T21:33:07.466Z,3.20
2018-12-30T21:35:48.419Z,3.20
2018-12-30T21:38:29.511Z,3.20
2018-12-30T21:41:10.913Z,3.20
2018-12-30T21:43:52.343Z,3.20
2018-12-30T21:46:33.250Z,3.20
2018-12-30T21:49:12.869Z,3.20
2018-12-30T21:52:01.166Z,3.20
2018-12-30T21:54:42.402Z,3.20
2018-12-30T21:57:23.622Z,3.20
2018-12-30T22:00:04.513Z,3.20
2018-12-30T22:02:46.466Z,3.20
2018-12-30T22:05:27.430Z,3.20
2018-12-30T22:08:08.210Z,3.20
2018-12-30T22:10:49.477Z,3.20
2018-12-30T22:13:30.618Z,3.20
2018-12-30T22:16:12.325Z,3.20
2018-12-30T22:18:53.470Z,3.20
2018-12-30T22:21:34.805Z,3.10
2018-12-30T22:24:16.627Z,3.10
2018-12-30T22:26:57.270Z,3.20
2018-12-30T22:29:37.140Z,3.20
2018-12-30T22:32:18.736Z,3.10
2018-12-30T22:35:00.207Z,3.10
2018-12-30T22:37:40.756Z,3.10
2018-12-30T22:40:22.245Z,3.20
2018-12-30T22:43:04.125Z,3.10
2018-12-30T22:45:45.824Z,3.10
2018-12-30T22:48:27.376Z,3.10
2018-12-30T22:51:08.531Z,3.10
2018-12-30T22:53:49.487Z,3.10
2018-12-30T22:56:31.324Z,3.10
2018-12-30T22:59:13.026Z,3.10
2018-12-30T23:01:54.212Z,3.10
2018-12-30T23:04:35.824Z,3.00
2018-12-30T23:07:17.984Z,3.00
2018-12-30T23:09:59.513Z,3.00
2018-12-30T23:12:41.208Z,3.00
2018-12-30T23:15:20.844Z,2.90
2018-12-30T23:18:01.607Z,2.90
2018-12-30T23:20:42.921Z,2.90
2018-12-30T23:23:31.636Z,2.90
2018-12-30T23:26:12.764Z,2.90
2018-12-30T23:28:54.380Z,2.90
2018-12-30T23:31:35.956Z,2.90
2018-12-30T23:34:17.328Z,2.90
2018-12-30T23:36:58.579Z,2.80
2018-12-30T23:39:39.375Z,2.80
2018-12-30T23:42:20.880Z,2.80
2018-12-30T23:45:00.827Z,2.80
2018-12-30T23:47:41.926Z,2.80
2018-12-30T23:50:23.662Z,2.70
2018-12-30T23:53:04.853Z,2.70
2018-12-30T23:55:46.348Z,2.70
2018-12-30T23:58:27.525Z,2.70
